sensor_id;sensor_type;location;lat;lon;timestamp;P1;durP1;ratioP1;P2;durP2;ratioP2
4724;SDS011;2376;53.544;10.226;2023-05-10T00:00:18;13.43;;;4.20;;
4724;SDS011;2376;53.544;10.226;2023-05-10T00:02:45;20.83;;;4.40;;
4724;SDS011;2376;53.544;10.226;2023-05-10T00:05:12;4.33;;;3.93;;
4724;SDS011;2376;53.544;10.226;2023-05-10T00:07:40;4.93;;;4.43;;
4724;SDS011;2376;53.544;10.226;2023-05-10T00:10:09;7.97;;;3.93;;
4724;SDS011;2376;53.544;10.226;2023-05-10T00:12:36;4.03;;;3.63;;
4724;SDS011;2376;53.544;10.226;2023-05-10T00:15:03;5.63;;;4.37;;
4724;SDS011;2376;53.544;10.226;2023-05-10T00:17:31;4.03;;;3.73;;
4724;SDS011;2376;53.544;10.226;2023-05-10T00:19:57;3.97;;;3.77;;
4724;SDS011;2376;53.544;10.226;2023-05-10T00:22:24;4.23;;;3.67;;
4724;SDS011;2376;53.544;10.226;2023-05-10T00:24:52;4.47;;;4.07;;
4724;SDS011;2376;53.544;10.226;2023-05-10T00:27:18;4.13;;;3.93;;
4724;SDS011;2376;53.544;10.226;2023-05-10T00:29:45;5.90;;;4.00;;
4724;SDS011;2376;53.544;10.226;2023-05-10T00:32:12;5.10;;;4.70;;
4724;SDS011;2376;53.544;10.226;2023-05-10T00:34:39;4.73;;;4.37;;
4724;SDS011;2376;53.544;10.226;2023-05-10T00:37:05;3.93;;;3.63;;
4724;SDS011;2376;53.544;10.226;2023-05-10T00:39:32;4.70;;;4.30;;
4724;SDS011;2376;53.544;10.226;2023-05-10T00:42:00;4.50;;;4.10;;
4724;SDS011;2376;53.544;10.226;2023-05-10T00:44:27;7.07;;;3.47;;
4724;SDS011;2376;53.544;10.226;2023-05-10T00:46:53;7.20;;;3.80;;
4724;SDS011;2376;53.544;10.226;2023-05-10T00:49:20;4.20;;;3.80;;
4724;SDS011;2376;53.544;10.226;2023-05-10T00:51:47;4.20;;;3.87;;
4724;SDS011;2376;53.544;10.226;2023-05-10T00:54:14;4.53;;;4.13;;
4724;SDS011;2376;53.544;10.226;2023-05-10T00:56:41;4.10;;;3.70;;
4724;SDS011;2376;53.544;10.226;2023-05-10T00:59:14;3.80;;;3.60;;
4724;SDS011;2376;53.544;10.226;2023-05-10T01:01:42;3.60;;;3.40;;
4724;SDS011;2376;53.544;10.226;2023-05-10T01:04:10;4.40;;;4.10;;
4724;SDS011;2376;53.544;10.226;2023-05-10T01:06:37;4.90;;;4.37;;
4724;SDS011;2376;53.544;10.226;2023-05-10T01:09:04;4.40;;;3.50;;
4724;SDS011;2376;53.544;10.226;2023-05-10T01:11:31;4.20;;;3.90;;
4724;SDS011;2376;53.544;10.226;2023-05-10T01:13:58;5.70;;;4.40;;
4724;SDS011;2376;53.544;10.226;2023-05-10T01:16:26;4.73;;;4.33;;
4724;SDS011;2376;53.544;10.226;2023-05-10T01:18:55;5.37;;;4.63;;
4724;SDS011;2376;53.544;10.226;2023-05-10T01:21:23;4.70;;;3.87;;
4724;SDS011;2376;53.544;10.226;2023-05-10T01:27:25;6.40;;;4.00;;
4724;SDS011;2376;53.544;10.226;2023-05-10T01:30:08;12.93;;;4.13;;
4724;SDS011;2376;53.544;10.226;2023-05-10T01:32:56;4.80;;;3.80;;
4724;SDS011;2376;53.544;10.226;2023-05-10T01:35:26;5.93;;;4.10;;
4724;SDS011;2376;53.544;10.226;2023-05-10T01:38:04;3.90;;;3.70;;
4724;SDS011;2376;53.544;10.226;2023-05-10T01:40:39;5.77;;;3.70;;
4724;SDS011;2376;53.544;10.226;2023-05-10T01:43:16;4.60;;;3.93;;
4724;SDS011;2376;53.544;10.226;2023-05-10T01:45:47;4.23;;;3.40;;
4724;SDS011;2376;53.544;10.226;2023-05-10T01:48:21;4.30;;;4.00;;
4724;SDS011;2376;53.544;10.226;2023-05-10T01:50:52;5.70;;;4.00;;
4724;SDS011;2376;53.544;10.226;2023-05-10T01:53:19;5.43;;;4.80;;
4724;SDS011;2376;53.544;10.226;2023-05-10T01:55:48;4.17;;;3.80;;
4724;SDS011;2376;53.544;10.226;2023-05-10T01:58:19;5.67;;;4.10;;
4724;SDS011;2376;53.544;10.226;2023-05-10T02:00:49;4.60;;;4.30;;
4724;SDS011;2376;53.544;10.226;2023-05-10T02:03:18;5.30;;;4.03;;
4724;SDS011;2376;53.544;10.226;2023-05-10T02:05:49;4.60;;;4.10;;
4724;SDS011;2376;53.544;10.226;2023-05-10T02:08:18;4.20;;;3.80;;
4724;SDS011;2376;53.544;10.226;2023-05-10T02:10:46;4.17;;;3.87;;
4724;SDS011;2376;53.544;10.226;2023-05-10T02:13:16;4.50;;;4.10;;
4724;SDS011;2376;53.544;10.226;2023-05-10T02:15:43;4.00;;;3.70;;
4724;SDS011;2376;53.544;10.226;2023-05-10T02:18:14;5.70;;;4.30;;
4724;SDS011;2376;53.544;10.226;2023-05-10T02:20:44;4.20;;;3.90;;
4724;SDS011;2376;53.544;10.226;2023-05-10T02:23:12;5.70;;;4.00;;
4724;SDS011;2376;53.544;10.226;2023-05-10T02:25:41;5.23;;;4.77;;
4724;SDS011;2376;53.544;10.226;2023-05-10T02:28:10;6.37;;;4.27;;
4724;SDS011;2376;53.544;10.226;2023-05-10T02:30:39;7.33;;;4.17;;
4724;SDS011;2376;53.544;10.226;2023-05-10T02:33:06;4.30;;;3.70;;
4724;SDS011;2376;53.544;10.226;2023-05-10T02:35:33;6.53;;;4.47;;
4724;SDS011;2376;53.544;10.226;2023-05-10T02:38:02;4.53;;;4.13;;
4724;SDS011;2376;53.544;10.226;2023-05-10T02:40:30;7.20;;;4.20;;
4724;SDS011;2376;53.544;10.226;2023-05-10T02:42:58;6.67;;;4.10;;
4724;SDS011;2376;53.544;10.226;2023-05-10T02:45:27;3.93;;;3.60;;
4724;SDS011;2376;53.544;10.226;2023-05-10T02:47:57;4.97;;;4.67;;
4724;SDS011;2376;53.544;10.226;2023-05-10T02:50:25;7.83;;;4.90;;
4724;SDS011;2376;53.544;10.226;2023-05-10T02:52:54;4.30;;;4.00;;
4724;SDS011;2376;53.544;10.226;2023-05-10T02:55:28;4.90;;;4.37;;
4724;SDS011;2376;53.544;10.226;2023-05-10T02:57:59;4.70;;;4.20;;
4724;SDS011;2376;53.544;10.226;2023-05-10T03:00:27;4.17;;;3.97;;
4724;SDS011;2376;53.544;10.226;2023-05-10T03:02:54;5.93;;;4.40;;
4724;SDS011;2376;53.544;10.226;2023-05-10T03:05:21;4.30;;;4.00;;
4724;SDS011;2376;53.544;10.226;2023-05-10T03:07:48;4.47;;;4.07;;
4724;SDS011;2376;53.544;10.226;2023-05-10T03:10:15;4.40;;;4.00;;
4724;SDS011;2376;53.544;10.226;2023-05-10T03:12:52;3.80;;;3.47;;
4724;SDS011;2376;53.544;10.226;2023-05-10T03:15:34;7.03;;;4.10;;
4724;SDS011;2376;53.544;10.226;2023-05-10T03:18:09;4.03;;;3.70;;
4724;SDS011;2376;53.544;10.226;2023-05-10T03:20:41;4.80;;;3.97;;
4724;SDS011;2376;53.544;10.226;2023-05-10T03:23:11;4.83;;;4.50;;
4724;SDS011;2376;53.544;10.226;2023-05-10T03:25:39;4.47;;;4.17;;
4724;SDS011;2376;53.544;10.226;2023-05-10T03:28:10;4.87;;;4.47;;
4724;SDS011;2376;53.544;10.226;2023-05-10T03:30:38;5.67;;;5.13;;
4724;SDS011;2376;53.544;10.226;2023-05-10T03:33:05;6.50;;;4.30;;
4724;SDS011;2376;53.544;10.226;2023-05-10T03:35:32;5.10;;;4.70;;
4724;SDS011;2376;53.544;10.226;2023-05-10T03:37:59;8.93;;;4.63;;
4724;SDS011;2376;53.544;10.226;2023-05-10T03:40:26;6.00;;;4.40;;
4724;SDS011;2376;53.544;10.226;2023-05-10T03:42:54;5.53;;;4.27;;
4724;SDS011;2376;53.544;10.226;2023-05-10T03:45:22;4.97;;;4.23;;
4724;SDS011;2376;53.544;10.226;2023-05-10T03:47:48;4.70;;;4.30;;
4724;SDS011;2376;53.544;10.226;2023-05-10T03:50:15;4.70;;;4.30;;
4724;SDS011;2376;53.544;10.226;2023-05-10T03:52:42;5.50;;;4.73;;
4724;SDS011;2376;53.544;10.226;2023-05-10T03:55:09;5.20;;;4.70;;
4724;SDS011;2376;53.544;10.226;2023-05-10T03:57:36;5.13;;;4.10;;
4724;SDS011;2376;53.544;10.226;2023-05-10T04:00:03;4.40;;;4.10;;
4724;SDS011;2376;53.544;10.226;2023-05-10T04:02:31;6.13;;;4.80;;
4724;SDS011;2376;53.544;10.226;2023-05-10T04:04:58;4.80;;;4.20;;
4724;SDS011;2376;53.544;10.226;2023-05-10T04:07:25;4.67;;;4.43;;
4724;SDS011;2376;53.544;10.226;2023-05-10T04:09:51;5.97;;;4.67;;
4724;SDS011;2376;53.544;10.226;2023-05-10T04:12:18;5.47;;;4.97;;
4724;SDS011;2376;53.544;10.226;2023-05-10T04:14:45;4.47;;;4.17;;
4724;SDS011;2376;53.544;10.226;2023-05-10T04:17:11;4.80;;;4.50;;
4724;SDS011;2376;53.544;10.226;2023-05-10T04:19:39;5.23;;;4.83;;
4724;SDS011;2376;53.544;10.226;2023-05-10T04:22:06;4.43;;;4.13;;
4724;SDS011;2376;53.544;10.226;2023-05-10T04:24:33;4.47;;;4.17;;
4724;SDS011;2376;53.544;10.226;2023-05-10T04:27:00;4.77;;;4.47;;
4724;SDS011;2376;53.544;10.226;2023-05-10T04:29:26;4.97;;;4.47;;
4724;SDS011;2376;53.544;10.226;2023-05-10T04:31:53;5.10;;;4.70;;
4724;SDS011;2376;53.544;10.226;2023-05-10T04:34:21;5.13;;;4.70;;
4724;SDS011;2376;53.544;10.226;2023-05-10T04:36:49;4.03;;;3.63;;
4724;SDS011;2376;53.544;10.226;2023-05-10T04:39:16;4.73;;;4.43;;
4724;SDS011;2376;53.544;10.226;2023-05-10T04:41:43;5.33;;;4.83;;
4724;SDS011;2376;53.544;10.226;2023-05-10T04:44:09;4.20;;;4.00;;
4724;SDS011;2376;53.544;10.226;2023-05-10T04:46:36;5.23;;;4.90;;
4724;SDS011;2376;53.544;10.226;2023-05-10T04:49:03;5.07;;;4.67;;
4724;SDS011;2376;53.544;10.226;2023-05-10T04:51:29;7.13;;;4.97;;
4724;SDS011;2376;53.544;10.226;2023-05-10T04:53:58;4.80;;;4.40;;
4724;SDS011;2376;53.544;10.226;2023-05-10T04:56:24;5.93;;;4.50;;
4724;SDS011;2376;53.544;10.226;2023-05-10T04:58:51;4.80;;;4.50;;
4724;SDS011;2376;53.544;10.226;2023-05-10T05:01:18;4.63;;;4.30;;
4724;SDS011;2376;53.544;10.226;2023-05-10T05:03:44;4.70;;;4.30;;
4724;SDS011;2376;53.544;10.226;2023-05-10T05:06:11;5.53;;;5.20;;
4724;SDS011;2376;53.544;10.226;2023-05-10T05:08:38;10.00;;;4.80;;
4724;SDS011;2376;53.544;10.226;2023-05-10T05:11:05;5.20;;;4.80;;
4724;SDS011;2376;53.544;10.226;2023-05-10T05:13:32;4.33;;;4.03;;
4724;SDS011;2376;53.544;10.226;2023-05-10T05:16:00;4.50;;;4.20;;
4724;SDS011;2376;53.544;10.226;2023-05-10T05:18:27;4.70;;;4.30;;
4724;SDS011;2376;53.544;10.226;2023-05-10T05:20:53;4.90;;;4.60;;
4724;SDS011;2376;53.544;10.226;2023-05-10T05:23:20;4.70;;;4.40;;
4724;SDS011;2376;53.544;10.226;2023-05-10T05:25:49;4.60;;;4.30;;
4724;SDS011;2376;53.544;10.226;2023-05-10T05:28:18;4.00;;;3.80;;
4724;SDS011;2376;53.544;10.226;2023-05-10T05:30:45;5.13;;;4.63;;
4724;SDS011;2376;53.544;10.226;2023-05-10T05:33:12;5.57;;;5.07;;
4724;SDS011;2376;53.544;10.226;2023-05-10T05:35:40;5.10;;;4.80;;
4724;SDS011;2376;53.544;10.226;2023-05-10T05:38:07;4.00;;;3.70;;
4724;SDS011;2376;53.544;10.226;2023-05-10T05:40:34;4.23;;;4.03;;
4724;SDS011;2376;53.544;10.226;2023-05-10T05:43:01;4.27;;;3.97;;
4724;SDS011;2376;53.544;10.226;2023-05-10T05:45:29;5.20;;;4.70;;
4724;SDS011;2376;53.544;10.226;2023-05-10T05:47:56;7.67;;;4.70;;
4724;SDS011;2376;53.544;10.226;2023-05-10T05:50:22;5.83;;;5.10;;
4724;SDS011;2376;53.544;10.226;2023-05-10T05:52:49;5.53;;;5.17;;
4724;SDS011;2376;53.544;10.226;2023-05-10T05:55:16;5.13;;;4.60;;
4724;SDS011;2376;53.544;10.226;2023-05-10T05:57:42;4.73;;;4.33;;
4724;SDS011;2376;53.544;10.226;2023-05-10T06:00:09;5.00;;;4.50;;
4724;SDS011;2376;53.544;10.226;2023-05-10T06:02:38;5.03;;;4.63;;
4724;SDS011;2376;53.544;10.226;2023-05-10T06:05:05;5.53;;;5.13;;
4724;SDS011;2376;53.544;10.226;2023-05-10T06:07:32;6.97;;;5.03;;
4724;SDS011;2376;53.544;10.226;2023-05-10T06:09:59;6.23;;;5.13;;
4724;SDS011;2376;53.544;10.226;2023-05-10T06:12:26;5.10;;;4.70;;
4724;SDS011;2376;53.544;10.226;2023-05-10T06:14:52;6.83;;;4.70;;
4724;SDS011;2376;53.544;10.226;2023-05-10T06:17:19;5.70;;;5.07;;
4724;SDS011;2376;53.544;10.226;2023-05-10T06:19:47;4.73;;;4.43;;
4724;SDS011;2376;53.544;10.226;2023-05-10T06:22:15;4.40;;;4.10;;
4724;SDS011;2376;53.544;10.226;2023-05-10T06:24:41;5.23;;;4.83;;
4724;SDS011;2376;53.544;10.226;2023-05-10T06:27:08;5.90;;;4.77;;
4724;SDS011;2376;53.544;10.226;2023-05-10T06:29:35;4.97;;;4.70;;
4724;SDS011;2376;53.544;10.226;2023-05-10T06:32:01;5.17;;;4.77;;
4724;SDS011;2376;53.544;10.226;2023-05-10T06:34:28;6.00;;;5.60;;
4724;SDS011;2376;53.544;10.226;2023-05-10T06:36:56;4.87;;;4.53;;
4724;SDS011;2376;53.544;10.226;2023-05-10T06:39:23;6.73;;;4.90;;
4724;SDS011;2376;53.544;10.226;2023-05-10T06:41:50;5.53;;;4.80;;
4724;SDS011;2376;53.544;10.226;2023-05-10T06:44:17;5.17;;;4.73;;
4724;SDS011;2376;53.544;10.226;2023-05-10T06:46:43;5.63;;;5.00;;
4724;SDS011;2376;53.544;10.226;2023-05-10T06:49:10;5.30;;;4.90;;
4724;SDS011;2376;53.544;10.226;2023-05-10T06:51:37;4.70;;;4.30;;
4724;SDS011;2376;53.544;10.226;2023-05-10T06:54:05;4.73;;;4.33;;
4724;SDS011;2376;53.544;10.226;2023-05-10T06:56:31;4.80;;;4.50;;
4724;SDS011;2376;53.544;10.226;2023-05-10T06:58:58;5.43;;;4.90;;
4724;SDS011;2376;53.544;10.226;2023-05-10T07:01:25;5.23;;;4.60;;
4724;SDS011;2376;53.544;10.226;2023-05-10T07:03:51;4.53;;;4.23;;
4724;SDS011;2376;53.544;10.226;2023-05-10T07:06:18;7.73;;;4.87;;
4724;SDS011;2376;53.544;10.226;2023-05-10T07:08:45;4.43;;;4.20;;
4724;SDS011;2376;53.544;10.226;2023-05-10T07:11:12;5.30;;;4.80;;
4724;SDS011;2376;53.544;10.226;2023-05-10T07:13:39;6.20;;;4.37;;
4724;SDS011;2376;53.544;10.226;2023-05-10T07:16:09;5.20;;;4.80;;
4724;SDS011;2376;53.544;10.226;2023-05-10T07:18:36;6.50;;;5.77;;
4724;SDS011;2376;53.544;10.226;2023-05-10T07:21:02;4.90;;;4.60;;
4724;SDS011;2376;53.544;10.226;2023-05-10T07:23:29;5.53;;;5.20;;
4724;SDS011;2376;53.544;10.226;2023-05-10T07:25:56;5.30;;;4.90;;
4724;SDS011;2376;53.544;10.226;2023-05-10T07:28:24;5.47;;;5.17;;
4724;SDS011;2376;53.544;10.226;2023-05-10T07:30:51;5.40;;;5.00;;
4724;SDS011;2376;53.544;10.226;2023-05-10T07:33:18;5.53;;;5.13;;
4724;SDS011;2376;53.544;10.226;2023-05-10T07:35:44;4.83;;;4.43;;
4724;SDS011;2376;53.544;10.226;2023-05-10T07:38:11;4.23;;;3.83;;
4724;SDS011;2376;53.544;10.226;2023-05-10T07:40:38;4.93;;;4.53;;
4724;SDS011;2376;53.544;10.226;2023-05-10T07:43:05;3.73;;;3.43;;
4724;SDS011;2376;53.544;10.226;2023-05-10T07:45:34;4.63;;;4.30;;
4724;SDS011;2376;53.544;10.226;2023-05-10T07:48:00;4.87;;;4.50;;
4724;SDS011;2376;53.544;10.226;2023-05-10T07:50:27;5.07;;;4.57;;
4724;SDS011;2376;53.544;10.226;2023-05-10T07:52:54;7.17;;;4.20;;
4724;SDS011;2376;53.544;10.226;2023-05-10T07:55:21;5.03;;;4.63;;
4724;SDS011;2376;53.544;10.226;2023-05-10T07:57:48;5.30;;;3.90;;
4724;SDS011;2376;53.544;10.226;2023-05-10T08:00:16;5.10;;;4.70;;
4724;SDS011;2376;53.544;10.226;2023-05-10T08:02:45;6.63;;;3.97;;
4724;SDS011;2376;53.544;10.226;2023-05-10T08:05:13;4.43;;;4.13;;
4724;SDS011;2376;53.544;10.226;2023-05-10T08:07:40;5.27;;;4.87;;
4724;SDS011;2376;53.544;10.226;2023-05-10T08:10:08;4.63;;;4.43;;
4724;SDS011;2376;53.544;10.226;2023-05-10T08:12:36;4.30;;;4.10;;
4724;SDS011;2376;53.544;10.226;2023-05-10T08:15:03;5.70;;;3.87;;
4724;SDS011;2376;53.544;10.226;2023-05-10T08:17:30;4.70;;;4.20;;
4724;SDS011;2376;53.544;10.226;2023-05-10T08:19:58;4.30;;;4.00;;
4724;SDS011;2376;53.544;10.226;2023-05-10T08:22:25;4.87;;;4.33;;
4724;SDS011;2376;53.544;10.226;2023-05-10T08:24:52;4.47;;;4.17;;
4724;SDS011;2376;53.544;10.226;2023-05-10T08:27:19;4.20;;;3.90;;
4724;SDS011;2376;53.544;10.226;2023-05-10T08:29:45;5.13;;;4.60;;
4724;SDS011;2376;53.544;10.226;2023-05-10T08:32:12;5.70;;;5.03;;
4724;SDS011;2376;53.544;10.226;2023-05-10T08:34:38;5.00;;;4.60;;
4724;SDS011;2376;53.544;10.226;2023-05-10T08:37:07;5.30;;;4.37;;
4724;SDS011;2376;53.544;10.226;2023-05-10T08:39:34;3.80;;;3.60;;
4724;SDS011;2376;53.544;10.226;2023-05-10T08:42:01;5.53;;;4.50;;
4724;SDS011;2376;53.544;10.226;2023-05-10T08:44:30;4.57;;;4.17;;
4724;SDS011;2376;53.544;10.226;2023-05-10T08:46:58;5.23;;;4.83;;
4724;SDS011;2376;53.544;10.226;2023-05-10T08:49:28;4.50;;;4.27;;
4724;SDS011;2376;53.544;10.226;2023-05-10T08:51:57;4.70;;;4.30;;
4724;SDS011;2376;53.544;10.226;2023-05-10T08:54:30;4.43;;;4.13;;
4724;SDS011;2376;53.544;10.226;2023-05-10T08:56:58;4.83;;;4.40;;
4724;SDS011;2376;53.544;10.226;2023-05-10T08:59:24;4.00;;;3.80;;
4724;SDS011;2376;53.544;10.226;2023-05-10T09:01:51;5.20;;;4.70;;
4724;SDS011;2376;53.544;10.226;2023-05-10T09:04:20;4.47;;;4.10;;
4724;SDS011;2376;53.544;10.226;2023-05-10T09:06:47;5.07;;;4.60;;
4724;SDS011;2376;53.544;10.226;2023-05-10T09:09:14;5.50;;;5.13;;
4724;SDS011;2376;53.544;10.226;2023-05-10T09:11:42;5.53;;;4.40;;
4724;SDS011;2376;53.544;10.226;2023-05-10T09:14:10;5.13;;;4.83;;
4724;SDS011;2376;53.544;10.226;2023-05-10T09:16:39;4.73;;;4.43;;
4724;SDS011;2376;53.544;10.226;2023-05-10T09:19:06;4.87;;;4.57;;
4724;SDS011;2376;53.544;10.226;2023-05-10T09:21:34;7.57;;;5.07;;
4724;SDS011;2376;53.544;10.226;2023-05-10T09:24:03;4.40;;;4.00;;
4724;SDS011;2376;53.544;10.226;2023-05-10T09:26:30;5.50;;;5.10;;
4724;SDS011;2376;53.544;10.226;2023-05-10T09:28:59;4.57;;;4.27;;
4724;SDS011;2376;53.544;10.226;2023-05-10T09:34:09;7.63;;;4.90;;
4724;SDS011;2376;53.544;10.226;2023-05-10T09:36:36;5.80;;;5.30;;
4724;SDS011;2376;53.544;10.226;2023-05-10T09:39:15;5.43;;;4.93;;
4724;SDS011;2376;53.544;10.226;2023-05-10T09:41:42;5.23;;;4.83;;
4724;SDS011;2376;53.544;10.226;2023-05-10T09:44:11;5.07;;;4.57;;
4724;SDS011;2376;53.544;10.226;2023-05-10T09:46:38;7.60;;;5.50;;
4724;SDS011;2376;53.544;10.226;2023-05-10T09:49:04;5.13;;;4.73;;
4724;SDS011;2376;53.544;10.226;2023-05-10T09:51:32;4.57;;;4.27;;
4724;SDS011;2376;53.544;10.226;2023-05-10T09:54:09;4.93;;;4.60;;
4724;SDS011;2376;53.544;10.226;2023-05-10T09:56:37;4.77;;;4.40;;
4724;SDS011;2376;53.544;10.226;2023-05-10T09:59:06;6.53;;;5.50;;
4724;SDS011;2376;53.544;10.226;2023-05-10T10:01:34;4.93;;;4.57;;
4724;SDS011;2376;53.544;10.226;2023-05-10T10:04:02;5.63;;;4.50;;
4724;SDS011;2376;53.544;10.226;2023-05-10T10:06:34;5.47;;;5.07;;
4724;SDS011;2376;53.544;10.226;2023-05-10T10:09:02;6.70;;;5.23;;
4724;SDS011;2376;53.544;10.226;2023-05-10T10:11:29;10.10;;;5.50;;
4724;SDS011;2376;53.544;10.226;2023-05-10T10:13:56;5.30;;;4.90;;
4724;SDS011;2376;53.544;10.226;2023-05-10T10:16:23;5.43;;;5.03;;
4724;SDS011;2376;53.544;10.226;2023-05-10T10:18:52;7.33;;;5.40;;
4724;SDS011;2376;53.544;10.226;2023-05-10T10:21:19;5.00;;;4.60;;
4724;SDS011;2376;53.544;10.226;2023-05-10T10:23:46;5.40;;;4.90;;
4724;SDS011;2376;53.544;10.226;2023-05-10T10:26:13;6.13;;;5.63;;
4724;SDS011;2376;53.544;10.226;2023-05-10T10:28:44;5.97;;;5.47;;
4724;SDS011;2376;53.544;10.226;2023-05-10T10:31:20;6.33;;;5.83;;
4724;SDS011;2376;53.544;10.226;2023-05-10T10:33:58;5.90;;;5.50;;
4724;SDS011;2376;53.544;10.226;2023-05-10T10:36:27;6.90;;;6.33;;
4724;SDS011;2376;53.544;10.226;2023-05-10T10:38:54;7.53;;;7.03;;
4724;SDS011;2376;53.544;10.226;2023-05-10T10:41:28;7.53;;;7.03;;
4724;SDS011;2376;53.544;10.226;2023-05-10T10:47:00;7.70;;;6.93;;
4724;SDS011;2376;53.544;10.226;2023-05-10T10:49:31;7.87;;;7.17;;
4724;SDS011;2376;53.544;10.226;2023-05-10T10:52:15;7.87;;;7.20;;
4724;SDS011;2376;53.544;10.226;2023-05-10T10:54:50;7.60;;;7.10;;
4724;SDS011;2376;53.544;10.226;2023-05-10T10:57:18;7.60;;;7.00;;
4724;SDS011;2376;53.544;10.226;2023-05-10T10:59:46;8.13;;;7.43;;
4724;SDS011;2376;53.544;10.226;2023-05-10T11:05:01;8.77;;;7.97;;
4724;SDS011;2376;53.544;10.226;2023-05-10T11:07:51;9.67;;;8.70;;
4724;SDS011;2376;53.544;10.226;2023-05-10T11:10:19;8.00;;;7.40;;
4724;SDS011;2376;53.544;10.226;2023-05-10T11:12:50;9.80;;;7.90;;
4724;SDS011;2376;53.544;10.226;2023-05-10T11:15:18;8.13;;;7.47;;
4724;SDS011;2376;53.544;10.226;2023-05-10T11:17:47;9.40;;;8.60;;
4724;SDS011;2376;53.544;10.226;2023-05-10T11:20:18;9.97;;;9.07;;
4724;SDS011;2376;53.544;10.226;2023-05-10T11:22:50;8.10;;;7.40;;
4724;SDS011;2376;53.544;10.226;2023-05-10T11:25:18;9.60;;;8.60;;
4724;SDS011;2376;53.544;10.226;2023-05-10T11:27:46;9.70;;;8.90;;
4724;SDS011;2376;53.544;10.226;2023-05-10T11:30:14;8.70;;;7.97;;
4724;SDS011;2376;53.544;10.226;2023-05-10T11:32:40;8.40;;;7.80;;
4724;SDS011;2376;53.544;10.226;2023-05-10T11:35:07;9.10;;;8.40;;
4724;SDS011;2376;53.544;10.226;2023-05-10T11:37:36;8.07;;;7.47;;
4724;SDS011;2376;53.544;10.226;2023-05-10T11:40:06;8.73;;;7.93;;
4724;SDS011;2376;53.544;10.226;2023-05-10T11:42:35;7.97;;;6.93;;
4724;SDS011;2376;53.544;10.226;2023-05-10T11:45:03;7.53;;;6.90;;
4724;SDS011;2376;53.544;10.226;2023-05-10T11:47:30;8.23;;;7.63;;
4724;SDS011;2376;53.544;10.226;2023-05-10T11:49:57;9.87;;;9.03;;
4724;SDS011;2376;53.544;10.226;2023-05-10T11:52:25;8.77;;;8.07;;
4724;SDS011;2376;53.544;10.226;2023-05-10T11:54:53;9.93;;;9.13;;
4724;SDS011;2376;53.544;10.226;2023-05-10T11:57:20;9.60;;;8.70;;
4724;SDS011;2376;53.544;10.226;2023-05-10T11:59:52;9.87;;;9.13;;
4724;SDS011;2376;53.544;10.226;2023-05-10T12:02:19;8.80;;;8.10;;
4724;SDS011;2376;53.544;10.226;2023-05-10T12:04:46;9.50;;;8.50;;
4724;SDS011;2376;53.544;10.226;2023-05-10T12:07:13;8.70;;;7.90;;
4724;SDS011;2376;53.544;10.226;2023-05-10T12:09:42;9.27;;;8.57;;
4724;SDS011;2376;53.544;10.226;2023-05-10T12:12:10;9.63;;;8.80;;
4724;SDS011;2376;53.544;10.226;2023-05-10T12:14:41;9.70;;;9.00;;
4724;SDS011;2376;53.544;10.226;2023-05-10T12:17:11;8.97;;;8.33;;
4724;SDS011;2376;53.544;10.226;2023-05-10T12:19:38;8.23;;;7.40;;
4724;SDS011;2376;53.544;10.226;2023-05-10T12:22:05;8.80;;;7.90;;
4724;SDS011;2376;53.544;10.226;2023-05-10T12:24:33;9.07;;;8.47;;
4724;SDS011;2376;53.544;10.226;2023-05-10T12:27:04;9.00;;;8.40;;
4724;SDS011;2376;53.544;10.226;2023-05-10T12:29:34;9.50;;;8.60;;
4724;SDS011;2376;53.544;10.226;2023-05-10T12:32:01;8.57;;;7.77;;
4724;SDS011;2376;53.544;10.226;2023-05-10T12:34:30;8.80;;;8.10;;
4724;SDS011;2376;53.544;10.226;2023-05-10T12:36:58;9.43;;;8.60;;
4724;SDS011;2376;53.544;10.226;2023-05-10T12:39:25;10.70;;;9.70;;
4724;SDS011;2376;53.544;10.226;2023-05-10T12:41:52;9.73;;;8.93;;
4724;SDS011;2376;53.544;10.226;2023-05-10T12:44:19;9.97;;;9.17;;
4724;SDS011;2376;53.544;10.226;2023-05-10T12:46:47;10.17;;;9.17;;
4724;SDS011;2376;53.544;10.226;2023-05-10T12:49:13;10.00;;;9.10;;
4724;SDS011;2376;53.544;10.226;2023-05-10T12:51:40;9.20;;;8.27;;
4724;SDS011;2376;53.544;10.226;2023-05-10T12:54:07;9.10;;;8.33;;
4724;SDS011;2376;53.544;10.226;2023-05-10T12:56:33;9.10;;;8.40;;
4724;SDS011;2376;53.544;10.226;2023-05-10T12:59:00;9.33;;;8.53;;
4724;SDS011;2376;53.544;10.226;2023-05-10T13:01:27;8.47;;;7.87;;
4724;SDS011;2376;53.544;10.226;2023-05-10T13:03:55;8.60;;;8.00;;
4724;SDS011;2376;53.544;10.226;2023-05-10T13:06:22;6.47;;;6.07;;
4724;SDS011;2376;53.544;10.226;2023-05-10T13:08:49;8.17;;;7.57;;
4724;SDS011;2376;53.544;10.226;2023-05-10T13:11:16;8.43;;;7.73;;
4724;SDS011;2376;53.544;10.226;2023-05-10T13:13:44;7.03;;;6.43;;
4724;SDS011;2376;53.544;10.226;2023-05-10T13:16:11;6.83;;;6.40;;
4724;SDS011;2376;53.544;10.226;2023-05-10T13:18:38;7.97;;;7.33;;
4724;SDS011;2376;53.544;10.226;2023-05-10T13:21:06;6.93;;;6.43;;
4724;SDS011;2376;53.544;10.226;2023-05-10T13:23:32;7.13;;;6.63;;
4724;SDS011;2376;53.544;10.226;2023-05-10T13:25:59;6.97;;;6.50;;
4724;SDS011;2376;53.544;10.226;2023-05-10T13:28:26;6.47;;;5.90;;
4724;SDS011;2376;53.544;10.226;2023-05-10T13:30:52;5.97;;;5.57;;
4724;SDS011;2376;53.544;10.226;2023-05-10T13:33:19;6.30;;;5.80;;
4724;SDS011;2376;53.544;10.226;2023-05-10T13:35:46;6.37;;;5.97;;
4724;SDS011;2376;53.544;10.226;2023-05-10T13:38:14;5.27;;;4.87;;
4724;SDS011;2376;53.544;10.226;2023-05-10T13:40:40;6.43;;;5.90;;
4724;SDS011;2376;53.544;10.226;2023-05-10T13:43:07;5.60;;;5.30;;
4724;SDS011;2376;53.544;10.226;2023-05-10T13:45:33;5.40;;;5.00;;
4724;SDS011;2376;53.544;10.226;2023-05-10T13:48:00;6.23;;;5.83;;
4724;SDS011;2376;53.544;10.226;2023-05-10T13:50:27;7.10;;;6.50;;
4724;SDS011;2376;53.544;10.226;2023-05-10T13:52:53;7.17;;;6.57;;
4724;SDS011;2376;53.544;10.226;2023-05-10T13:55:22;6.13;;;5.83;;
4724;SDS011;2376;53.544;10.226;2023-05-10T13:57:48;6.00;;;5.60;;
4724;SDS011;2376;53.544;10.226;2023-05-10T14:00:15;4.93;;;4.63;;
4724;SDS011;2376;53.544;10.226;2023-05-10T14:02:42;5.87;;;5.37;;
4724;SDS011;2376;53.544;10.226;2023-05-10T14:05:09;5.90;;;4.93;;
4724;SDS011;2376;53.544;10.226;2023-05-10T14:07:35;5.23;;;4.83;;
4724;SDS011;2376;53.544;10.226;2023-05-10T14:10:03;5.90;;;5.50;;
4724;SDS011;2376;53.544;10.226;2023-05-10T14:12:31;5.60;;;5.30;;
4724;SDS011;2376;53.544;10.226;2023-05-10T14:14:58;5.30;;;4.90;;
4724;SDS011;2376;53.544;10.226;2023-05-10T14:17:25;6.57;;;5.90;;
4724;SDS011;2376;53.544;10.226;2023-05-10T14:19:52;5.30;;;4.90;;
4724;SDS011;2376;53.544;10.226;2023-05-10T14:22:18;4.50;;;4.30;;
4724;SDS011;2376;53.544;10.226;2023-05-10T14:24:45;5.67;;;5.27;;
4724;SDS011;2376;53.544;10.226;2023-05-10T14:27:12;4.90;;;4.60;;
4724;SDS011;2376;53.544;10.226;2023-05-10T14:29:40;5.30;;;4.87;;
4724;SDS011;2376;53.544;10.226;2023-05-10T14:32:07;4.77;;;4.47;;
4724;SDS011;2376;53.544;10.226;2023-05-10T14:34:33;4.73;;;4.43;;
4724;SDS011;2376;53.544;10.226;2023-05-10T14:37:00;4.83;;;4.33;;
4724;SDS011;2376;53.544;10.226;2023-05-10T14:39:27;5.17;;;4.87;;
4724;SDS011;2376;53.544;10.226;2023-05-10T14:41:54;5.40;;;5.10;;
4724;SDS011;2376;53.544;10.226;2023-05-10T14:44:21;5.47;;;5.07;;
4724;SDS011;2376;53.544;10.226;2023-05-10T14:46:50;6.57;;;6.03;;
4724;SDS011;2376;53.544;10.226;2023-05-10T14:49:16;5.90;;;5.50;;
4724;SDS011;2376;53.544;10.226;2023-05-10T14:51:43;5.50;;;5.20;;
4724;SDS011;2376;53.544;10.226;2023-05-10T14:54:10;5.60;;;5.20;;
4724;SDS011;2376;53.544;10.226;2023-05-10T14:56:37;5.33;;;4.93;;
4724;SDS011;2376;53.544;10.226;2023-05-10T14:59:04;5.83;;;5.40;;
4724;SDS011;2376;53.544;10.226;2023-05-10T15:01:30;5.53;;;5.13;;
4724;SDS011;2376;53.544;10.226;2023-05-10T15:03:59;6.83;;;5.77;;
4724;SDS011;2376;53.544;10.226;2023-05-10T15:06:30;5.93;;;5.53;;
4724;SDS011;2376;53.544;10.226;2023-05-10T15:08:57;6.10;;;5.60;;
4724;SDS011;2376;53.544;10.226;2023-05-10T15:11:24;5.87;;;5.37;;
4724;SDS011;2376;53.544;10.226;2023-05-10T15:13:50;6.27;;;5.67;;
4724;SDS011;2376;53.544;10.226;2023-05-10T15:16:17;5.97;;;5.57;;